Eliptamin Airport


Codes: AYEL/EPT
Name: Eliptamin Airport
City: Eliptamin
Country: Papua New Guinea
Elevation: 4825 ft.

Photos at Eliptamin Airport


   Photos courtesy of SpottingLog. You can add your own sightings and photos by signing up for a free trial today.



No photos found.

Weather at Eliptamin Airport


Time (UTC)DescriptionTempratureWindCloud coverageVisibilityPressureHumidity
13-Jun-2024 03:00Moderate Rain20°C2 mph, N100%881m1016hPa98%
13-Jun-2024 06:00Light Rain20°C0 mph, N100%0m1015hPa98%
13-Jun-2024 09:00Overcast Clouds18°C2 mph, S100%10000m1015hPa98%
13-Jun-2024 12:00Light Rain18°C4 mph, S100%10000m1016hPa96%
13-Jun-2024 15:00Overcast Clouds18°C2 mph, S100%10000m1015hPa94%
13-Jun-2024 18:00Overcast Clouds17°C2 mph, S98%10000m1014hPa95%
13-Jun-2024 21:00Overcast Clouds16°C2 mph, S86%10000m1016hPa94%
14-Jun-2024 00:00Overcast Clouds25°C2 mph, N95%10000m1014hPa55%
14-Jun-2024 03:00Light Rain27°C2 mph, N88%10000m1010hPa54%
14-Jun-2024 06:00Light Rain22°C0 mph, N93%8361m1010hPa95%
14-Jun-2024 09:00Light Rain19°C2 mph, S99%10000m1013hPa99%
14-Jun-2024 12:00Light Rain18°C2 mph, S99%10000m1016hPa99%
14-Jun-2024 15:00Light Rain17°C2 mph, S100%10000m1015hPa99%
14-Jun-2024 18:00Overcast Clouds18°C2 mph, S100%10000m1014hPa99%
14-Jun-2024 21:00Light Rain18°C0 mph, S100%10000m1015hPa98%
15-Jun-2024 00:00Light Rain22°C2 mph, N97%10000m1014hPa81%
15-Jun-2024 03:00Light Rain22°C2 mph, N99%9222m1012hPa93%
15-Jun-2024 06:00Moderate Rain21°C2 mph, N99%3424m1011hPa98%
15-Jun-2024 09:00Moderate Rain19°C2 mph, N100%0m1014hPa100%
15-Jun-2024 12:00Heavy Intensity Rain18°C2 mph, N100%0m1016hPa100%
15-Jun-2024 15:00Light Rain18°C0 mph, NW100%6390m1015hPa100%
15-Jun-2024 18:00Light Rain18°C0 mph, N100%0m1014hPa100%
15-Jun-2024 21:00Overcast Clouds18°C0 mph, N100%0m1015hPa100%
16-Jun-2024 00:00Light Rain22°C2 mph, NW100%10000m1015hPa87%
16-Jun-2024 03:00Light Rain22°C2 mph, N94%7244m1013hPa91%
16-Jun-2024 06:00Moderate Rain21°C0 mph, N98%3300m1012hPa98%
16-Jun-2024 09:00Moderate Rain19°C0 mph, SW100%6589m1014hPa99%
16-Jun-2024 12:00Light Rain19°C0 mph, S100%10000m1016hPa99%
16-Jun-2024 15:00Light Rain19°C0 mph, SE97%2453m1015hPa99%
16-Jun-2024 18:00Light Rain18°C2 mph, S94%10000m1015hPa99%
16-Jun-2024 21:00Broken Clouds17°C2 mph, S83%10000m1016hPa99%
17-Jun-2024 00:00Light Rain21°C2 mph, N86%10000m1015hPa91%
17-Jun-2024 03:00Light Rain22°C2 mph, N73%7241m1013hPa94%
17-Jun-2024 06:00Moderate Rain22°C0 mph, N87%0m1012hPa96%
17-Jun-2024 09:00Moderate Rain19°C0 mph, SW100%5877m1014hPa99%
17-Jun-2024 12:00Light Rain19°C0 mph, S100%10000m1016hPa99%
17-Jun-2024 15:00Light Rain19°C0 mph, NW100%7505m1015hPa99%
17-Jun-2024 18:00Light Rain18°C2 mph, SW100%9600m1014hPa99%
17-Jun-2024 21:00Light Rain19°C0 mph, SW100%3419m1015hPa100%
18-Jun-2024 00:00Moderate Rain19°C0 mph, NE100%1393m1016hPa100%